createdAt,value
2018-10-18T00:03:17.020Z,61.00
2018-10-18T00:08:20.561Z,60.90
2018-10-18T00:13:24.150Z,61.10
2018-10-18T00:18:27.962Z,61.00
2018-10-18T00:23:32.646Z,62.40
2018-10-18T00:28:36.197Z,61.60
2018-10-18T00:33:42.225Z,62.10
2018-10-18T00:38:45.828Z,62.50
2018-10-18T00:43:49.385Z,62.50
2018-10-18T00:48:52.948Z,62.70
2018-10-18T00:53:56.716Z,63.10
2018-10-18T00:59:00.257Z,63.30
2018-10-18T01:09:18.379Z,63.20
2018-10-18T01:14:21.959Z,63.80
2018-10-18T01:19:25.697Z,63.20
2018-10-18T01:24:29.330Z,62.90
2018-10-18T01:29:51.407Z,63.10
2018-10-18T01:34:55.011Z,63.70
2018-10-18T01:39:58.663Z,64.10
2018-10-18T01:45:08.699Z,64.10
2018-10-18T01:50:22.279Z,63.70
2018-10-18T01:55:26.003Z,63.90
2018-10-18T02:00:29.680Z,64.30
2018-10-18T02:05:33.255Z,64.40
2018-10-18T02:10:36.849Z,64.90
2018-10-18T02:15:40.419Z,64.80
2018-10-18T02:20:44.250Z,64.40
2018-10-18T02:25:48.016Z,64.10
2018-10-18T02:30:51.990Z,63.70
2018-10-18T02:35:55.756Z,64.30
2018-10-18T02:41:00.537Z,64.50
2018-10-18T02:46:35.097Z,64.90
2018-10-18T02:51:38.801Z,64.70
2018-10-18T02:56:42.676Z,65.50
2018-10-18T03:01:46.279Z,65.50
2018-10-18T03:06:49.954Z,64.70
2018-10-18T03:11:54.238Z,65.10
2018-10-18T03:16:58.547Z,65.90
2018-10-18T03:22:02.180Z,66.30
2018-10-18T03:27:06.318Z,66.10
2018-10-18T03:32:09.930Z,65.50
2018-10-18T03:37:13.568Z,66.40
2018-10-18T03:42:18.132Z,65.80
2018-10-18T03:47:22.294Z,65.20
2018-10-18T03:52:25.872Z,65.80
2018-10-18T03:57:29.749Z,65.70
2018-10-18T04:02:33.325Z,65.70
2018-10-18T04:07:36.911Z,65.70
2018-10-18T04:12:43.185Z,66.40
2018-10-18T04:17:46.950Z,66.10
2018-10-18T04:22:51.035Z,65.30
2018-10-18T04:27:54.611Z,65.50
2018-10-18T04:32:58.321Z,66.10
2018-10-18T04:38:02.445Z,65.50
2018-10-18T04:43:06.306Z,65.60
2018-10-18T04:48:10.011Z,66.30
2018-10-18T04:53:14.010Z,66.00
2018-10-18T04:58:17.952Z,66.00
2018-10-18T05:03:21.548Z,67.00
2018-10-18T05:08:26.389Z,67.20
2018-10-18T05:13:32.740Z,67.30
2018-10-18T05:18:36.459Z,67.90
2018-10-18T05:23:40.723Z,67.50
2018-10-18T05:28:44.360Z,66.70
2018-10-18T05:33:47.989Z,66.60
2018-10-18T05:38:51.548Z,66.60
2018-10-18T05:43:55.271Z,67.50
2018-10-18T05:48:58.899Z,66.60
2018-10-18T05:54:02.910Z,66.10
2018-10-18T05:59:06.691Z,66.00
2018-10-18T06:04:14.379Z,66.60
2018-10-18T06:09:28.888Z,67.00
2018-10-18T06:14:32.611Z,67.20
2018-10-18T06:19:42.504Z,66.10
2018-10-18T06:24:46.533Z,65.90
2018-10-18T06:29:50.379Z,66.60
2018-10-18T06:34:54.223Z,67.50
2018-10-18T06:39:57.911Z,67.90
2018-10-18T06:45:01.730Z,67.80
2018-10-18T06:50:06.539Z,67.50
2018-10-18T06:55:10.347Z,67.80
2018-10-18T07:00:16.070Z,68.10
2018-10-18T07:05:19.678Z,67.70
2018-10-18T07:10:23.965Z,66.70
2018-10-18T07:15:27.869Z,67.10
2018-10-18T07:20:31.524Z,67.80
2018-10-18T07:25:35.132Z,67.20
2018-10-18T07:30:38.762Z,67.30
2018-10-18T07:35:42.595Z,67.10
2018-10-18T07:40:46.337Z,66.60
2018-10-18T07:45:50.435Z,66.80
2018-10-18T07:50:54.852Z,66.60
2018-10-18T07:55:59.145Z,66.40
2018-10-18T08:01:04.248Z,66.30
2018-10-18T08:06:08.104Z,66.20
2018-10-18T08:11:11.790Z,65.80
2018-10-18T08:16:15.800Z,65.10
2018-10-18T08:21:19.683Z,64.40
2018-10-18T08:26:23.319Z,62.90
2018-10-18T08:31:27.300Z,62.10
2018-10-18T08:36:30.899Z,61.50
2018-10-18T08:41:35.227Z,61.30
2018-10-18T08:46:38.831Z,61.00
2018-10-18T08:51:42.643Z,60.20
2018-10-18T08:56:46.688Z,59.70
2018-10-18T09:01:50.262Z,59.20
2018-10-18T09:06:54.283Z,58.20
2018-10-18T09:11:57.955Z,57.70
2018-10-18T09:17:01.543Z,57.10
2018-10-18T09:22:08.648Z,56.90
2018-10-18T09:27:12.540Z,54.20
2018-10-18T09:32:16.501Z,51.90
2018-10-18T09:37:20.512Z,49.50
2018-10-18T09:42:25.408Z,48.10
2018-10-18T09:47:29.037Z,46.10
2018-10-18T09:52:32.685Z,44.10
2018-10-18T09:57:36.274Z,43.80
2018-10-18T10:02:46.082Z,44.40
2018-10-18T10:07:49.767Z,43.90
2018-10-18T10:12:53.378Z,42.40
2018-10-18T10:17:57.038Z,42.90
2018-10-18T10:23:01.728Z,42.50
2018-10-18T10:28:05.714Z,42.90
2018-10-18T10:33:09.718Z,42.90
2018-10-18T10:38:13.211Z,42.60
2018-10-18T10:43:16.875Z,42.20
2018-10-18T10:48:23.720Z,42.60
2018-10-18T10:53:28.063Z,42.10
2018-10-18T10:58:31.717Z,41.40
2018-10-18T11:03:38.544Z,42.40
2018-10-18T11:08:47.530Z,42.20
2018-10-18T11:13:52.089Z,42.80
2018-10-18T11:23:59.522Z,40.50
2018-10-18T11:29:03.171Z,40.70
2018-10-18T11:34:06.850Z,41.00
2018-10-18T11:39:11.020Z,40.50
2018-10-18T11:44:14.814Z,41.00
2018-10-18T11:49:18.400Z,41.70
2018-10-18T11:54:22.116Z,42.60
2018-10-18T11:59:25.995Z,42.60
2018-10-18T12:04:29.809Z,43.00
2018-10-18T12:09:33.575Z,42.60
2018-10-18T12:14:37.252Z,41.90
2018-10-18T12:19:41.532Z,41.90
2018-10-18T12:24:45.500Z,41.10
2018-10-18T12:29:49.772Z,40.70
2018-10-18T12:34:53.449Z,38.60
2018-10-18T12:39:57.092Z,38.50
2018-10-18T12:45:00.711Z,39.00
2018-10-18T12:50:04.789Z,38.40
2018-10-18T12:55:09.374Z,37.00
2018-10-18T13:00:14.045Z,36.60
2018-10-18T13:05:17.704Z,37.10
2018-10-18T13:10:21.372Z,37.30
2018-10-18T13:15:25.124Z,37.60
2018-10-18T13:20:28.765Z,37.10
2018-10-18T13:30:35.741Z,37.50
2018-10-18T13:40:42.599Z,37.60
2018-10-18T13:55:52.867Z,37.10
2018-10-18T14:00:56.504Z,36.40
2018-10-18T14:06:00.292Z,36.40
2018-10-18T14:16:09.182Z,37.10
2018-10-18T14:21:12.906Z,36.20
2018-10-18T14:26:16.706Z,36.40
2018-10-18T14:31:20.147Z,36.70
2018-10-18T14:41:27.122Z,35.90
2018-10-18T14:46:31.282Z,35.30
2018-10-18T14:51:34.988Z,35.70
2018-10-18T14:56:40.064Z,35.80
2018-10-18T15:01:44.420Z,36.40
2018-10-18T15:06:48.063Z,37.00
2018-10-18T15:11:51.657Z,36.80
2018-10-18T15:16:58.494Z,36.60
2018-10-18T15:22:02.159Z,37.20
2018-10-18T15:27:07.357Z,37.90
2018-10-18T15:32:11.134Z,38.90
2018-10-18T15:47:22.491Z,40.50
2018-10-18T15:52:26.002Z,41.00
2018-10-18T15:57:29.832Z,41.40
2018-10-18T16:02:33.544Z,42.00
2018-10-18T16:07:37.663Z,42.80
2018-10-18T16:12:41.546Z,43.50
2018-10-18T16:17:45.359Z,44.10
2018-10-18T16:22:49.354Z,44.80
2018-10-18T16:27:53.282Z,45.40
2018-10-18T16:32:56.882Z,46.30
2018-10-18T16:38:00.716Z,47.30
2018-10-18T16:43:04.483Z,48.10
2018-10-18T16:48:08.560Z,48.80
2018-10-18T16:53:12.235Z,49.40
2018-10-18T16:58:16.039Z,49.40
2018-10-18T17:03:19.577Z,50.30
2018-10-18T17:08:23.219Z,51.00
2018-10-18T17:13:27.147Z,51.60
2018-10-18T17:18:30.886Z,51.50
2018-10-18T17:23:34.805Z,51.90
2018-10-18T17:28:38.979Z,52.10
2018-10-18T17:33:42.559Z,51.50
2018-10-18T17:38:46.926Z,51.30
2018-10-18T17:43:50.506Z,51.30
2018-10-18T17:48:54.086Z,51.30
2018-10-18T17:53:58.281Z,52.10
2018-10-18T17:59:01.927Z,52.10
2018-10-18T18:04:06.078Z,52.00
2018-10-18T18:09:09.608Z,51.90
2018-10-18T18:14:13.284Z,51.90
2018-10-18T18:19:17.156Z,51.40
2018-10-18T18:24:20.752Z,51.70
2018-10-18T18:29:24.327Z,52.10
2018-10-18T18:34:28.848Z,52.10
2018-10-18T18:39:32.479Z,51.50
2018-10-18T18:44:36.127Z,52.10
2018-10-18T18:49:39.741Z,52.20
2018-10-18T18:54:44.912Z,52.50
2018-10-18T18:59:48.584Z,52.50
2018-10-18T19:04:52.232Z,52.70
2018-10-18T19:09:56.300Z,52.90
2018-10-18T19:15:00.047Z,53.40
2018-10-18T19:20:07.109Z,54.10
2018-10-18T19:25:11.034Z,54.70
2018-10-18T19:30:16.773Z,55.10
2018-10-18T19:35:20.479Z,55.30
2018-10-18T19:40:24.274Z,55.60
2018-10-18T19:45:28.041Z,56.00
2018-10-18T19:50:31.632Z,56.40
2018-10-18T19:55:36.913Z,56.70
2018-10-18T20:00:40.547Z,56.00
2018-10-18T20:05:45.110Z,55.90
2018-10-18T20:10:49.304Z,56.40
2018-10-18T20:15:52.975Z,56.50
2018-10-18T20:20:56.805Z,56.90
2018-10-18T20:26:00.663Z,56.90
2018-10-18T20:31:04.384Z,57.10
2018-10-18T20:36:08.364Z,57.80
2018-10-18T20:41:12.055Z,58.30
2018-10-18T20:46:15.777Z,58.20
2018-10-18T20:51:19.463Z,58.10
2018-10-18T20:56:23.529Z,58.30
2018-10-18T21:01:28.816Z,58.30
2018-10-18T21:06:32.632Z,58.60
2018-10-18T21:11:36.111Z,58.20
2018-10-18T21:16:40.182Z,57.60
2018-10-18T21:21:44.358Z,56.80
2018-10-18T21:26:48.052Z,56.60
2018-10-18T21:31:51.700Z,56.40
2018-10-18T21:36:55.394Z,56.20
2018-10-18T21:41:59.187Z,56.50
2018-10-18T21:47:03.737Z,56.80
2018-10-18T21:52:07.785Z,56.80
2018-10-18T21:57:20.514Z,56.50
2018-10-18T22:02:24.581Z,57.10
2018-10-18T22:07:28.194Z,58.00
2018-10-18T22:12:31.859Z,58.20
2018-10-18T22:17:37.711Z,58.80
2018-10-18T22:22:41.340Z,59.30
2018-10-18T22:27:45.139Z,59.70
2018-10-18T22:32:48.994Z,59.90
2018-10-18T22:37:59.681Z,60.10
2018-10-18T22:43:03.731Z,60.40
2018-10-18T22:48:07.647Z,60.80
2018-10-18T22:53:11.280Z,60.80
2018-10-18T22:58:14.871Z,61.40
2018-10-18T23:03:19.963Z,61.70
2018-10-18T23:08:24.265Z,61.50
2018-10-18T23:13:27.822Z,61.10
2018-10-18T23:18:33.449Z,60.80
2018-10-18T23:28:47.743Z,60.50
2018-10-18T23:33:51.717Z,60.80
2018-10-18T23:38:55.440Z,61.80
2018-10-18T23:43:59.260Z,62.00
2018-10-18T23:49:04.744Z,61.60
2018-10-18T23:54:08.941Z,61.70
2018-10-18T23:59:12.700Z,61.30
